Time;durP1;ratioP1;P1;durP2;ratioP2;P2;SDS_P1;SDS_P2;PMS_P1;PMS_P2;Temp;Humidity;BMP_temperature;BMP_pressure;BME280_temperature;BME280_humidity;BME280_pressure;Samples;Min_cycle;Max_cycle;Signal;HPM_P1;HPM_P2
2023/07/28 00:02:25;;;;;;;5.32;3.22;;;;;;;13.75;74.09;92476.91;2037856;70;20158;-87
2023/07/28 00:04:52;;;;;;;6.82;3.63;;;;;;;13.76;73.43;92469.88;2038345;70;20224;-88
2023/07/28 00:07:18;;;;;;;6.38;3.35;;;;;;;13.83;72.80;92477.97;2038148;70;20159;-88
2023/07/28 00:09:44;;;;;;;7.28;3.50;;;;;;;13.78;72.57;92475.63;2041006;70;20166;-87
2023/07/28 00:12:09;;;;;;;9.38;3.72;;;;;;;13.70;73.03;92473.91;2041149;70;20155;-88
2023/07/28 00:14:35;;;;;;;7.20;4.03;;;;;;;13.69;73.53;92477.34;2041021;70;20183;-87
2023/07/28 00:17:00;;;;;;;6.63;3.65;;;;;;;13.60;73.64;92478.34;2041451;70;20170;-88
2023/07/28 00:19:26;;;;;;;6.95;3.95;;;;;;;13.65;72.84;92485.63;2040898;70;20146;-87
2023/07/28 00:21:52;;;;;;;7.18;3.45;;;;;;;13.69;73.31;92474.50;2040703;70;20138;-87
2023/07/28 00:24:18;;;;;;;6.93;3.47;;;;;;;13.67;72.57;92478.00;2041054;70;20163;-87
2023/07/28 00:26:47;;;;;;;5.63;3.40;;;;;;;13.65;73.74;92474.31;2041207;70;20135;-87
2023/07/28 00:29:13;;;;;;;6.82;3.42;;;;;;;13.52;73.78;92480.81;2041378;70;20182;-87
2023/07/28 00:31:39;;;;;;;6.50;3.60;;;;;;;13.39;74.35;92483.06;2038050;70;20298;-90
2023/07/28 00:34:05;;;;;;;8.68;3.50;;;;;;;13.53;73.63;92482.28;2038137;70;20167;-90
2023/07/28 00:36:31;;;;;;;8.45;3.28;;;;;;;13.44;73.61;92473.41;2041341;70;20131;-88
2023/07/28 00:38:57;;;;;;;4.32;3.08;;;;;;;13.48;73.69;92479.25;2040935;70;20147;-89
2023/07/28 00:41:23;;;;;;;9.38;3.65;;;;;;;13.47;73.44;92485.56;2040935;70;20139;-89
2023/07/28 00:43:48;;;;;;;5.38;3.45;;;;;;;13.48;73.52;92473.59;2040976;70;20145;-88
2023/07/28 00:46:15;;;;;;;7.20;3.45;;;;;;;13.31;74.57;92470.66;2035111;70;20158;-89
2023/07/28 00:48:41;;;;;;;6.75;3.30;;;;;;;13.39;73.89;92483.06;2037700;70;20139;-88
2023/07/28 00:51:10;;;;;;;8.27;3.50;;;;;;;13.39;73.60;92485.16;2040851;70;20199;-88
2023/07/28 00:53:36;;;;;;;7.40;3.72;;;;;;;13.31;73.97;92482.69;2040980;70;20270;-88
2023/07/28 00:56:04;;;;;;;6.53;3.50;;;;;;;13.29;73.91;92481.88;2037648;70;20162;-88
2023/07/28 00:58:30;;;;;;;5.30;3.22;;;;;;;13.22;74.39;92480.84;2041064;70;20178;-88
2023/07/28 01:00:56;;;;;;;4.97;3.38;;;;;;;13.26;74.31;92478.19;2040683;70;20581;-89
2023/07/28 01:03:24;;;;;;;6.28;3.50;;;;;;;13.30;73.88;92486.16;2037563;70;20494;-89
2023/07/28 01:06:36;;;;;;;6.90;3.35;;;;;;;13.31;73.03;92479.84;2041648;70;20353;-89
2023/07/28 01:09:17;;;;;;;10.50;4.57;;;;;;;13.29;73.78;92484.69;2024324;70;20161;-88
2023/07/28 01:11:58;;;;;;;7.65;4.13;;;;;;;13.07;74.92;92478.69;2025111;70;20217;-88
2023/07/28 01:14:27;;;;;;;6.90;4.55;;;;;;;13.30;74.44;92483.31;2026674;70;20648;-88
2023/07/28 01:16:53;;;;;;;8.00;4.25;;;;;;;13.36;73.80;92489.25;2027265;70;20152;-89
2023/07/28 01:19:24;;;;;;;6.95;3.80;;;;;;;13.34;73.02;92484.25;2024710;70;20144;-90
2023/07/28 01:22:01;;;;;;;12.68;5.60;;;;;;;13.24;73.66;92492.25;2027664;70;20153;-91
2023/07/28 01:24:41;;;;;;;10.90;5.00;;;;;;;13.18;73.94;92475.69;2024552;70;20511;-90
2023/07/28 01:27:08;;;;;;;10.40;4.65;;;;;;;13.22;73.60;92486.50;2024630;70;20635;-89
2023/07/28 01:29:35;;;;;;;8.90;4.65;;;;;;;13.20;74.22;92489.19;2024871;70;20291;-90
2023/07/28 01:32:01;;;;;;;8.50;4.22;;;;;;;13.19;73.79;92480.00;2024580;70;20168;-88
2023/07/28 01:34:27;;;;;;;5.70;3.80;;;;;;;13.18;74.11;92481.34;2027709;70;20160;-89
2023/07/28 01:36:52;;;;;;;7.82;3.70;;;;;;;13.20;73.81;92475.06;2024833;70;20196;-89
2023/07/28 01:39:18;;;;;;;9.23;4.28;;;;;;;13.20;74.15;92480.72;2032574;70;20563;-90
2023/07/28 01:41:44;;;;;;;8.60;4.07;;;;;;;13.13;73.98;92476.84;2038438;70;20182;-88
2023/07/28 01:44:10;;;;;;;5.57;3.42;;;;;;;13.17;74.71;92485.53;2038276;70;20612;-89
2023/07/28 01:46:36;;;;;;;6.35;3.38;;;;;;;13.20;74.51;92478.63;2038931;70;20262;-89
2023/07/28 01:49:05;;;;;;;4.95;3.47;;;;;;;13.20;74.46;92483.56;2041424;70;20171;-89
2023/07/28 01:51:31;;;;;;;4.90;3.10;;;;;;;13.23;75.10;92480.19;2042483;70;20231;-88
2023/07/28 01:53:57;;;;;;;5.15;3.30;;;;;;;13.27;74.38;92490.97;2043531;70;20227;-88
2023/07/28 01:56:23;;;;;;;7.55;3.88;;;;;;;13.31;74.21;92481.94;2043738;70;20254;-88
2023/07/28 01:58:48;;;;;;;8.75;3.67;;;;;;;13.33;74.07;92473.56;2039718;70;20270;-87
2023/07/28 02:01:17;;;;;;;9.52;4.05;;;;;;;13.25;73.75;92473.19;2042795;70;20227;-89
2023/07/28 02:03:42;;;;;;;6.60;3.80;;;;;;;13.24;73.55;92475.28;2034694;70;20194;-88
2023/07/28 02:06:12;;;;;;;8.02;4.00;;;;;;;13.20;73.61;92464.50;2044110;70;20142;-88
2023/07/28 02:08:37;;;;;;;7.50;4.35;;;;;;;13.33;73.24;92482.78;2040576;70;20174;-90
2023/07/28 02:11:05;;;;;;;7.72;3.65;;;;;;;13.30;72.95;92475.56;2038043;70;20135;-89
2023/07/28 02:13:34;;;;;;;7.97;3.38;;;;;;;13.29;73.60;92484.69;2043618;70;20162;-89
2023/07/28 02:16:04;;;;;;;8.32;3.03;;;;;;;13.27;72.98;92461.97;2039545;70;20221;-87
2023/07/28 02:18:32;;;;;;;5.45;3.33;;;;;;;13.38;73.10;92469.56;2043265;70;20210;-89
2023/07/28 02:21:04;;;;;;;8.40;3.10;;;;;;;13.35;73.83;92480.03;2041016;70;20552;-90
2023/07/28 02:23:30;;;;;;;6.03;2.95;;;;;;;13.30;73.75;92467.09;2041378;70;20142;-89
2023/07/28 02:26:01;;;;;;;5.18;3.40;;;;;;;13.29;73.46;92471.28;2044600;70;20143;-88
2023/07/28 02:28:28;;;;;;;9.30;3.63;;;;;;;13.28;73.83;92471.91;2041045;70;20132;-90
2023/07/28 02:30:57;;;;;;;5.28;3.15;;;;;;;13.32;73.81;92472.81;2043445;70;20226;-90
2023/07/28 02:33:23;;;;;;;6.65;3.78;;;;;;;13.41;72.61;92473.94;2041415;70;20136;-89
2023/07/28 02:35:49;;;;;;;6.07;3.20;;;;;;;13.42;73.57;92470.50;2037340;70;20210;-90
2023/07/28 02:38:15;;;;;;;5.65;3.70;;;;;;;13.48;73.25;92461.56;2042691;70;20171;-89
2023/07/28 02:40:40;;;;;;;5.65;3.22;;;;;;;13.30;74.35;92446.56;2042970;70;20198;-90
2023/07/28 02:43:06;;;;;;;6.63;2.97;;;;;;;13.44;72.87;92456.44;2041804;70;20139;-89
2023/07/28 02:45:32;;;;;;;6.57;3.40;;;;;;;13.41;71.10;92457.69;2044548;70;20239;-90
2023/07/28 02:47:59;;;;;;;7.07;3.75;;;;;;;13.53;71.38;92465.31;2039369;70;20163;-90
2023/07/28 02:50:24;;;;;;;6.28;3.47;;;;;;;13.61;71.74;92474.16;2042101;70;20190;-91
2023/07/28 02:52:50;;;;;;;8.13;3.60;;;;;;;13.55;71.58;92479.53;2038743;70;20183;-90
2023/07/28 02:55:18;;;;;;;7.57;3.97;;;;;;;13.66;70.63;92487.13;2038909;70;20257;-90
2023/07/28 02:57:44;;;;;;;5.82;3.70;;;;;;;13.66;71.53;92496.34;2038691;70;20144;-90
2023/07/28 03:00:11;;;;;;;6.03;4.20;;;;;;;13.63;71.02;92474.25;2038834;70;20147;-90
2023/07/28 03:02:37;;;;;;;7.28;3.08;;;;;;;13.63;70.75;92479.91;2038722;70;20574;-90
2023/07/28 03:05:04;;;;;;;8.52;3.53;;;;;;;13.68;71.07;92476.63;2036120;70;20243;-90
2023/07/28 03:07:48;;;;;;;10.15;3.70;;;;;;;13.46;71.51;92465.00;2041832;70;20227;-90
2023/07/28 03:10:16;;;;;;;10.23;3.70;;;;;;;13.52;70.69;92472.34;2041763;70;20177;-91
2023/07/28 03:12:42;;;;;;;6.70;3.65;;;;;;;13.67;70.82;92468.78;2038539;70;20139;-91
2023/07/28 03:15:09;;;;;;;5.72;3.70;;;;;;;13.65;70.69;92458.13;2038276;70;20594;-90
2023/07/28 03:17:37;;;;;;;4.70;3.22;;;;;;;13.64;70.92;92450.97;2038645;70;20639;-91
2023/07/28 03:20:03;;;;;;;6.78;3.53;;;;;;;13.65;71.42;92460.94;2036105;70;20162;-91
2023/07/28 03:22:30;;;;;;;7.78;3.22;;;;;;;13.60;71.72;92467.03;2038705;70;20155;-88
2023/07/28 03:24:56;;;;;;;5.25;3.50;;;;;;;13.40;72.35;92467.56;2038988;70;20542;-89
2023/07/28 03:27:22;;;;;;;5.20;3.03;;;;;;;13.40;72.31;92464.00;2035799;70;20203;-89
2023/07/28 03:29:47;;;;;;;4.45;3.13;;;;;;;13.56;71.78;92466.84;2041942;70;20733;-89
2023/07/28 03:32:16;;;;;;;5.32;3.28;;;;;;;13.71;70.95;92474.63;2038483;70;20242;-90
2023/07/28 03:34:43;;;;;;;7.55;3.35;;;;;;;13.60;71.31;92469.84;2035790;70;20147;-89
2023/07/28 03:37:11;;;;;;;9.65;3.75;;;;;;;13.69;71.60;92471.69;2038595;70;20151;-89
2023/07/28 03:39:38;;;;;;;8.65;3.40;;;;;;;13.46;72.84;92467.81;2038526;70;20196;-89
2023/07/28 03:42:04;;;;;;;6.32;4.00;;;;;;;13.56;72.40;92472.50;2041773;70;20151;-88
2023/07/28 03:44:30;;;;;;;7.38;3.28;;;;;;;13.76;71.56;92478.38;2038458;70;20618;-89
2023/07/28 03:46:56;;;;;;;7.63;3.80;;;;;;;13.66;72.23;92475.81;2038176;70;20163;-89
2023/07/28 03:49:21;;;;;;;7.38;3.53;;;;;;;13.76;71.21;92470.59;2038325;70;20171;-89
2023/07/28 03:51:50;;;;;;;7.10;3.28;;;;;;;13.87;71.81;92474.63;2038445;70;20217;-89
2023/07/28 03:54:16;;;;;;;8.10;3.70;;;;;;;13.87;71.66;92478.16;2038299;70;20171;-90
2023/07/28 03:56:42;;;;;;;4.97;3.58;;;;;;;13.79;72.10;92475.00;2038360;70;20147;-89
2023/07/28 03:59:07;;;;;;;6.70;3.70;;;;;;;13.89;71.76;92481.09;2038332;70;20246;-89
2023/07/28 04:01:33;;;;;;;7.38;3.70;;;;;;;13.87;71.30;92477.44;2038303;70;20242;-89
2023/07/28 04:04:03;;;;;;;6.13;3.80;;;;;;;13.87;71.46;92468.94;2041376;70;20151;-90
2023/07/28 04:06:46;;;;;;;7.72;3.75;;;;;;;13.82;72.98;92462.38;2038649;70;20258;-89
2023/07/28 04:09:15;;;;;;;7.35;4.05;;;;;;;13.87;72.17;92458.38;2041692;70;20151;-89
2023/07/28 04:11:41;;;;;;;7.40;4.47;;;;;;;13.80;72.83;92456.66;2035691;70;20151;-89
2023/07/28 04:14:07;;;;;;;9.52;4.00;;;;;;;13.71;73.70;92452.00;2035669;70;20163;-89
2023/07/28 04:16:33;;;;;;;8.52;3.42;;;;;;;13.76;73.25;92456.47;2041730;70;20234;-89
2023/07/28 04:19:00;;;;;;;6.72;2.97;;;;;;;13.73;73.34;92466.94;2038546;70;20269;-90
2023/07/28 04:21:26;;;;;;;6.20;4.03;;;;;;;13.27;76.21;92470.44;2042500;70;20182;-89
2023/07/28 04:23:52;;;;;;;6.65;3.78;;;;;;;13.51;74.92;92465.19;2033276;70;20200;-90
2023/07/28 04:26:18;;;;;;;10.60;3.50;;;;;;;13.65;73.59;92465.84;2038870;70;20630;-90
2023/07/28 04:28:44;;;;;;;6.85;3.70;;;;;;;13.64;73.60;92473.59;2035623;70;20147;-90
2023/07/28 04:31:11;;;;;;;6.03;3.63;;;;;;;13.66;73.23;92458.84;2041599;70;20144;-90
2023/07/28 04:33:54;;;;;;;5.30;3.30;;;;;;;13.69;73.69;92463.19;2040916;70;20501;-89
2023/07/28 04:36:20;;;;;;;7.85;4.10;;;;;;;13.29;76.08;92464.91;2041628;70;20139;-87
2023/07/28 04:38:52;;;;;;;7.70;3.90;;;;;;;13.59;74.76;92479.72;2042321;70;20609;-87
2023/07/28 04:41:18;;;;;;;6.75;3.85;;;;;;;13.58;74.25;92459.19;2041112;70;20155;-86
2023/07/28 04:43:52;;;;;;;7.45;3.88;;;;;;;13.68;74.50;92453.25;2039630;70;20155;-89
2023/07/28 04:46:18;;;;;;;5.95;3.60;;;;;;;13.62;73.97;92441.69;2038573;70;20148;-88
2023/07/28 04:48:49;;;;;;;6.88;3.20;;;;;;;13.61;74.57;92435.28;2038399;70;20633;-88
2023/07/28 04:51:33;;;;;;;7.60;3.40;;;;;;;13.65;74.18;92429.06;2042099;70;20262;-87
2023/07/28 04:54:18;;;;;;;5.28;3.70;;;;;;;13.69;74.90;92438.47;2036850;70;20151;-86
2023/07/28 04:56:45;;;;;;;6.32;3.83;;;;;;;13.30;76.50;92452.97;2036222;70;20529;-87
2023/07/28 04:59:11;;;;;;;6.35;3.47;;;;;;;13.76;74.39;92459.28;2036311;70;20154;-89
2023/07/28 05:01:36;;;;;;;6.80;4.10;;;;;;;13.88;73.82;92456.25;2038279;70;20147;-87
2023/07/28 05:04:03;;;;;;;8.48;3.90;;;;;;;13.91;73.88;92433.09;2040644;70;20171;-88
2023/07/28 05:06:30;;;;;;;9.65;3.22;;;;;;;13.86;75.18;92430.72;2039993;70;20143;-87
2023/07/28 05:08:55;;;;;;;6.60;2.78;;;;;;;14.15;73.74;92427.75;2039006;70;20266;-89
2023/07/28 05:11:31;;;;;;;9.13;3.08;;;;;;;14.24;72.24;92435.22;2037354;70;20205;-88
2023/07/28 05:13:56;;;;;;;5.95;3.90;;;;;;;13.69;75.05;92440.56;2045498;70;20536;-88
2023/07/28 05:16:22;;;;;;;6.32;3.58;;;;;;;13.97;74.18;92427.72;2045528;70;20528;-88
2023/07/28 05:19:07;;;;;;;6.35;3.85;;;;;;;14.14;74.50;92443.28;2048494;70;20249;-87
2023/07/28 05:21:46;;;;;;;8.13;3.65;;;;;;;14.22;73.12;92426.66;2045630;70;20174;-87
2023/07/28 05:24:13;;;;;;;8.15;4.10;;;;;;;14.47;72.95;92439.72;2045336;70;20158;-85
2023/07/28 05:26:39;;;;;;;7.93;3.72;;;;;;;14.36;74.73;92443.53;2045521;70;20143;-87
2023/07/28 05:29:04;;;;;;;6.75;3.85;;;;;;;14.40;73.33;92446.53;2045155;70;20158;-87
2023/07/28 05:31:30;;;;;;;8.05;3.75;;;;;;;14.49;73.27;92456.84;2045252;70;20142;-87
2023/07/28 05:33:56;;;;;;;8.55;3.83;;;;;;;14.55;72.99;92464.16;2045245;70;20593;-87
2023/07/28 05:36:23;;;;;;;8.95;3.95;;;;;;;14.52;72.67;92468.25;2045798;70;20208;-88
2023/07/28 05:38:49;;;;;;;5.38;3.83;;;;;;;14.59;71.77;92467.16;2045425;70;20540;-87
2023/07/28 05:41:16;;;;;;;6.43;3.65;;;;;;;14.70;72.30;92469.03;2045232;70;20185;-87
2023/07/28 05:43:44;;;;;;;6.82;3.45;;;;;;;14.67;73.13;92468.22;2045229;70;20608;-86
2023/07/28 05:46:09;;;;;;;7.20;3.42;;;;;;;14.53;73.74;92461.25;2045150;70;20158;-85
2023/07/28 05:48:36;;;;;;;7.90;3.85;;;;;;;14.17;76.12;92461.81;2045245;70;20174;-85
2023/07/28 05:51:02;;;;;;;7.07;3.85;;;;;;;14.45;73.89;92465.16;2045580;70;20158;-86
2023/07/28 05:53:28;;;;;;;11.02;4.20;;;;;;;14.57;73.33;92476.31;2050808;70;20147;-86
2023/07/28 05:55:59;;;;;;;6.20;3.70;;;;;;;14.64;72.94;92478.00;2047878;70;20221;-86
2023/07/28 05:58:27;;;;;;;6.78;3.72;;;;;;;14.74;71.31;92475.59;2050728;70;20145;-86
2023/07/28 06:00:52;;;;;;;6.93;3.92;;;;;;;14.74;72.10;92472.75;2045856;70;20158;-86
2023/07/28 06:03:38;;;;;;;9.50;3.50;;;;;;;14.76;73.13;92474.97;2050635;70;20247;-85
2023/07/28 06:06:10;;;;;;;6.50;3.25;;;;;;;14.82;73.57;92478.03;2044791;70;20171;-85
2023/07/28 06:08:37;;;;;;;6.35;3.15;;;;;;;14.88;73.05;92472.63;2050131;70;20134;-86
2023/07/28 06:11:07;;;;;;;6.95;3.65;;;;;;;14.74;72.38;92469.91;2049440;70;20204;-86
2023/07/28 06:13:32;;;;;;;8.07;4.30;;;;;;;14.77;72.46;92470.75;2051558;70;20163;-86
2023/07/28 06:15:58;;;;;;;7.90;3.83;;;;;;;14.74;73.38;92483.38;2048074;70;20197;-85
2023/07/28 06:18:24;;;;;;;7.43;4.35;;;;;;;14.78;73.08;92482.81;2048666;70;20210;-89
2023/07/28 06:20:59;;;;;;;9.55;3.92;;;;;;;14.98;72.84;92500.66;2047102;70;20150;-86
2023/07/28 06:23:25;;;;;;;9.75;4.22;;;;;;;14.97;71.28;92499.91;2049107;70;20141;-86
2023/07/28 06:25:54;;;;;;;7.43;4.57;;;;;;;15.00;71.87;92497.91;2046120;70;20210;-84
2023/07/28 06:28:20;;;;;;;7.95;4.55;;;;;;;15.10;71.87;92489.81;2045855;70;20147;-83
2023/07/28 06:30:46;;;;;;;8.48;5.03;;;;;;;15.26;71.75;92495.44;2048709;70;20174;-85
2023/07/28 06:33:11;;;;;;;5.05;3.35;;;;;;;15.34;72.43;92500.69;2045041;70;20222;-85
2023/07/28 06:35:37;;;;;;;5.05;3.20;;;;;;;15.44;72.90;92489.72;2044920;70;20576;-84
2023/07/28 06:38:02;;;;;;;5.43;2.88;;;;;;;15.57;72.62;92505.13;2044959;70;20154;-85
2023/07/28 06:40:29;;;;;;;6.85;4.43;;;;;;;15.19;74.79;92514.28;2048194;70;20150;-85
2023/07/28 06:43:03;;;;;;;9.80;4.80;;;;;;;15.53;73.62;92505.69;2042097;70;20225;-86
2023/07/28 06:45:29;;;;;;;9.32;4.82;;;;;;;15.75;72.96;92505.84;2048290;70;20145;-87
2023/07/28 06:47:54;;;;;;;6.78;4.63;;;;;;;15.83;73.63;92508.28;2045080;70;20143;-87
2023/07/28 06:50:20;;;;;;;6.75;4.82;;;;;;;15.87;72.62;92517.69;2048884;70;20494;-88
2023/07/28 06:52:47;;;;;;;8.00;4.45;;;;;;;15.90;72.69;92519.22;2045136;70;20183;-87
2023/07/28 06:55:15;;;;;;;9.98;3.83;;;;;;;15.91;73.18;92531.31;2045037;70;20131;-87
2023/07/28 06:57:41;;;;;;;5.65;4.00;;;;;;;15.85;73.60;92528.22;2041433;70;20153;-87
2023/07/28 07:00:09;;;;;;;5.53;3.88;;;;;;;15.83;71.94;92534.56;2042244;70;20174;-87
2023/07/28 07:02:35;;;;;;;5.32;3.15;;;;;;;15.64;72.65;92527.44;2041786;70;20135;-88
2023/07/28 07:05:03;;;;;;;6.72;3.13;;;;;;;15.71;73.37;92526.31;2041875;70;20546;-87
2023/07/28 07:07:28;;;;;;;5.95;3.10;;;;;;;15.78;72.81;92529.38;2042932;70;20175;-87
2023/07/28 07:09:54;;;;;;;6.57;3.03;;;;;;;15.82;72.76;92526.72;2040636;70;20250;-87
2023/07/28 07:12:21;;;;;;;6.32;3.33;;;;;;;15.90;70.20;92522.06;2044044;70;20286;-88
2023/07/28 07:14:47;;;;;;;5.53;3.42;;;;;;;15.98;68.36;92516.69;2039565;70;20729;-87
2023/07/28 07:17:13;;;;;;;4.63;3.30;;;;;;;15.93;67.67;92509.41;2038275;70;20151;-89
2023/07/28 07:19:39;;;;;;;7.53;3.08;;;;;;;16.14;67.08;92513.00;2041616;70;20609;-88
2023/07/28 07:22:05;;;;;;;5.07;3.20;;;;;;;16.36;69.72;92516.69;2041691;70;20238;-88
2023/07/28 07:24:31;;;;;;;5.03;3.30;;;;;;;16.40;67.32;92507.56;2041695;70;20155;-88
2023/07/28 07:26:56;;;;;;;5.95;3.30;;;;;;;16.30;66.29;92522.13;2041840;70;20549;-87
2023/07/28 07:29:22;;;;;;;4.95;3.05;;;;;;;16.63;66.38;92509.84;2041737;70;20167;-88
2023/07/28 07:31:48;;;;;;;5.40;3.50;;;;;;;16.59;63.86;92495.47;2041824;70;20532;-87
2023/07/28 07:34:14;;;;;;;5.65;2.97;;;;;;;16.96;62.78;92511.72;2041525;70;20151;-87
2023/07/28 07:36:39;;;;;;;5.07;2.83;;;;;;;17.10;63.21;92499.38;2042764;70;20234;-88
2023/07/28 07:39:06;;;;;;;6.78;3.47;;;;;;;17.41;62.26;92490.44;2040405;70;20149;-89
2023/07/28 07:41:31;;;;;;;7.43;3.08;;;;;;;17.67;62.32;92495.50;2042605;70;20613;-88
2023/07/28 07:43:57;;;;;;;4.10;2.90;;;;;;;17.84;59.97;92497.50;2041421;70;20198;-88
2023/07/28 07:46:23;;;;;;;3.78;2.95;;;;;;;18.14;59.79;92499.78;2042018;70;20666;-89
2023/07/28 07:48:49;;;;;;;4.90;3.10;;;;;;;18.42;58.07;92497.06;2041389;70;20144;-90
2023/07/28 07:51:15;;;;;;;5.05;3.20;;;;;;;18.19;56.08;92473.63;2041570;70;20531;-89
2023/07/28 07:53:41;;;;;;;6.07;2.90;;;;;;;18.35;56.62;92501.13;2041654;70;20142;-88
2023/07/28 07:56:08;;;;;;;7.18;3.00;;;;;;;18.47;58.28;92487.22;2041630;70;20162;-89
2023/07/28 07:58:34;;;;;;;4.18;2.90;;;;;;;18.47;58.51;92490.06;2041562;70;20614;-88
2023/07/28 08:00:59;;;;;;;4.72;2.90;;;;;;;18.68;59.98;92494.91;2041496;70;20151;-89
2023/07/28 08:03:25;;;;;;;6.20;3.10;;;;;;;19.13;59.00;92492.56;2041487;70;20150;-89
2023/07/28 08:05:51;;;;;;;3.33;2.55;;;;;;;19.36;55.64;92491.72;2041560;70;20605;-88
2023/07/28 08:08:19;;;;;;;5.60;2.50;;;;;;;19.17;53.96;92495.53;2041602;70;20162;-87
2023/07/28 08:10:52;;;;;;;3.70;2.65;;;;;;;19.49;54.55;92490.63;2041796;70;20243;-88
2023/07/28 08:13:17;;;;;;;5.43;2.90;;;;;;;19.73;56.94;92487.66;2041997;70;20166;-88
2023/07/28 08:15:44;;;;;;;4.55;2.80;;;;;;;20.03;57.27;92490.50;2041517;70;20210;-88
2023/07/28 08:18:11;;;;;;;3.42;2.33;;;;;;;19.92;56.22;92470.94;2038051;70;20148;-88
2023/07/28 08:20:37;;;;;;;5.68;2.80;;;;;;;19.90;59.63;92476.63;2041627;70;20150;-88
2023/07/28 08:23:03;;;;;;;5.25;2.80;;;;;;;20.25;61.45;92480.94;2041714;70;20147;-88
2023/07/28 08:25:28;;;;;;;4.80;2.72;;;;;;;20.41;60.69;92484.16;2038507;70;20159;-88
2023/07/28 08:27:55;;;;;;;4.38;2.90;;;;;;;20.27;57.89;92466.72;2041638;70;20215;-86
2023/07/28 08:30:20;;;;;;;4.35;2.65;;;;;;;20.26;60.50;92470.97;2041390;70;20159;-87
2023/07/28 08:32:46;;;;;;;7.82;2.95;;;;;;;20.23;62.30;92472.34;2041682;70;20177;-88
2023/07/28 08:35:12;;;;;;;4.20;2.53;;;;;;;20.88;62.36;92478.66;2036537;70;20602;-89
2023/07/28 08:37:39;;;;;;;3.70;2.65;;;;;;;21.43;61.37;92471.09;2041315;70;20139;-89
2023/07/28 08:40:05;;;;;;;5.25;2.75;;;;;;;21.69;54.75;92473.66;2045614;70;20143;-88
2023/07/28 08:42:36;;;;;;;4.40;2.80;;;;;;;21.52;49.93;92475.53;2039454;70;20156;-88
2023/07/28 08:45:04;;;;;;;8.23;3.05;;;;;;;21.56;47.19;92478.47;2040174;70;20227;-87
2023/07/28 08:47:34;;;;;;;5.25;2.75;;;;;;;21.54;48.75;92470.56;2043716;70;20143;-89
2023/07/28 08:50:00;;;;;;;3.20;2.60;;;;;;;21.65;52.05;92465.00;2042127;70;20177;-89
2023/07/28 08:52:27;;;;;;;5.68;3.17;;;;;;;21.93;52.12;92467.59;2041848;70;20143;-89
2023/07/28 08:54:53;;;;;;;3.55;2.55;;;;;;;21.86;54.28;92463.91;2041953;70;20537;-88
2023/07/28 08:57:20;;;;;;;4.30;2.60;;;;;;;22.51;57.56;92467.72;2038678;70;20151;-89
2023/07/28 08:59:49;;;;;;;5.20;2.75;;;;;;;22.28;47.76;92468.84;2042078;70;20144;-89
2023/07/28 09:02:17;;;;;;;3.53;2.70;;;;;;;22.16;47.97;92460.78;2038421;70;20158;-89
2023/07/28 09:04:43;;;;;;;3.97;2.75;;;;;;;22.84;46.12;92465.22;2041274;70;20215;-89
2023/07/28 09:07:09;;;;;;;4.00;2.55;;;;;;;23.50;46.63;92470.25;2035765;70;20139;-89
2023/07/28 09:09:36;;;;;;;4.25;2.60;;;;;;;23.87;46.73;92470.59;2042383;70;20166;-89
2023/07/28 09:12:03;;;;;;;4.75;2.83;;;;;;;23.95;45.56;92473.50;2042473;70;20242;-89
2023/07/28 09:14:29;;;;;;;4.78;2.78;;;;;;;23.73;45.66;92468.31;2040065;70;20155;-89
2023/07/28 09:16:55;;;;;;;4.40;2.88;;;;;;;24.00;44.61;92480.72;2043252;70;20147;-90
2023/07/28 09:19:22;;;;;;;5.97;2.95;;;;;;;23.50;44.49;92484.63;2044141;70;20638;-89
2023/07/28 09:21:58;;;;;;;4.97;2.95;;;;;;;23.41;45.41;92480.19;2043411;70;20202;-89
2023/07/28 09:24:32;;;;;;;7.82;3.50;;;;;;;23.13;47.27;92485.66;2043000;70;20175;-89
2023/07/28 09:26:59;;;;;;;3.50;2.90;;;;;;;22.76;47.62;92485.22;2040086;70;20162;-89
2023/07/28 09:29:27;;;;;;;6.45;3.45;;;;;;;22.93;47.53;92484.00;2042990;70;20154;-89
2023/07/28 09:32:02;;;;;;;3.50;2.83;;;;;;;23.18;51.23;92482.13;2043648;70;20148;-90
2023/07/28 09:34:29;;;;;;;6.20;3.10;;;;;;;23.38;52.48;92490.22;2042650;70;20222;-89
2023/07/28 09:36:55;;;;;;;4.50;2.65;;;;;;;23.40;53.66;92481.63;2045347;70;20156;-89
2023/07/28 09:39:23;;;;;;;5.25;2.85;;;;;;;23.69;54.04;92481.94;2046032;70;20179;-88
2023/07/28 09:41:48;;;;;;;4.85;2.80;;;;;;;23.57;55.06;92479.63;2043965;70;20142;-89
2023/07/28 09:44:15;;;;;;;3.92;2.85;;;;;;;23.82;53.90;92474.81;2041865;70;20151;-89
2023/07/28 09:46:56;;;;;;;6.90;2.88;;;;;;;23.42;51.28;92446.47;2048307;70;20529;-89
2023/07/28 09:49:29;;;;;;;9.88;3.38;;;;;;;23.13;47.76;92454.06;2044512;70;20163;-89
2023/07/28 09:52:03;;;;;;;4.20;2.97;;;;;;;22.74;49.21;92450.78;2043228;70;20139;-88
2023/07/28 09:54:30;;;;;;;6.07;2.92;;;;;;;23.59;48.06;92451.66;2042960;70;20147;-89
2023/07/28 09:56:57;;;;;;;5.20;2.88;;;;;;;24.11;52.37;92454.94;2044889;70;20241;-89
2023/07/28 09:59:28;;;;;;;6.20;3.08;;;;;;;24.63;46.47;92465.31;2048414;70;20120;-89
2023/07/28 10:01:55;;;;;;;3.83;2.90;;;;;;;25.77;44.07;92448.34;2048770;70;20234;-89
2023/07/28 10:04:21;;;;;;;5.07;2.95;;;;;;;26.00;42.22;92451.94;2046683;70;20235;-89
2023/07/28 10:06:47;;;;;;;4.70;3.20;;;;;;;26.89;40.99;92453.91;2044044;70;20246;-87
2023/07/28 10:09:16;;;;;;;3.50;2.90;;;;;;;27.29;40.17;92444.34;2046802;70;20143;-87
2023/07/28 10:11:42;;;;;;;4.82;2.88;;;;;;;25.45;40.30;92443.97;2046635;70;20219;-89
2023/07/28 10:14:10;;;;;;;7.13;3.63;;;;;;;25.34;41.71;92446.13;2047410;70;20152;-88
2023/07/28 10:16:43;;;;;;;7.20;3.10;;;;;;;25.54;43.40;92442.53;2046075;70;20199;-87
2023/07/28 10:19:09;;;;;;;5.20;2.97;;;;;;;25.66;41.21;92438.97;2043661;70;20143;-89
2023/07/28 10:21:41;;;;;;;5.82;3.00;;;;;;;26.82;39.61;92438.06;2047494;70;20162;-88
2023/07/28 10:24:07;;;;;;;3.83;2.90;;;;;;;27.87;39.15;92436.03;2045773;70;20174;-87
2023/07/28 10:26:41;;;;;;;5.45;3.20;;;;;;;27.71;37.67;92433.25;2043323;70;20154;-87
2023/07/28 10:29:10;;;;;;;4.13;3.28;;;;;;;28.17;37.12;92445.91;2045396;70;20573;-88
2023/07/28 10:31:36;;;;;;;5.97;2.80;;;;;;;27.69;37.60;92436.16;2046789;70;20214;-88
2023/07/28 10:34:01;;;;;;;4.10;2.65;;;;;;;27.37;38.24;92423.38;2046815;70;20162;-87
2023/07/28 10:36:30;;;;;;;5.25;3.00;;;;;;;27.86;37.95;92423.03;2042939;70;20195;-87
2023/07/28 10:38:59;;;;;;;4.65;2.88;;;;;;;27.65;42.03;92415.94;2040902;70;20139;-87
2023/07/28 10:41:25;;;;;;;3.53;2.92;;;;;;;28.65;42.59;92426.66;2045099;70;20589;-87
2023/07/28 10:43:51;;;;;;;4.85;3.05;;;;;;;30.22;36.03;92413.59;2045490;70;20155;-87
2023/07/28 10:46:20;;;;;;;4.72;2.85;;;;;;;33.87;31.26;92421.59;2045702;70;20170;-88
2023/07/28 10:48:48;;;;;;;4.78;2.80;;;;;;;35.29;27.30;92427.78;2045009;70;20159;-89
2023/07/28 10:51:25;;;;;;;5.57;2.65;;;;;;;36.53;25.84;92425.19;2043457;70;20147;-89
2023/07/28 10:53:55;;;;;;;4.95;2.55;;;;;;;32.94;30.30;92422.13;2041841;70;20151;-87
2023/07/28 10:56:21;;;;;;;4.32;3.10;;;;;;;33.88;28.27;92423.72;2043850;70;20162;-86
2023/07/28 10:58:55;;;;;;;3.58;2.60;;;;;;;33.76;29.56;92414.66;2045442;70;20186;-87
2023/07/28 11:01:21;;;;;;;4.68;2.97;;;;;;;30.86;32.68;92410.25;2045315;70;20289;-86
2023/07/28 11:04:05;;;;;;;3.67;2.60;;;;;;;30.27;33.61;92412.03;2044733;70;20296;-86
2023/07/28 11:06:32;;;;;;;5.10;3.08;;;;;;;28.67;35.81;92404.16;2044977;70;20151;-90
2023/07/28 11:08:58;;;;;;;3.22;2.70;;;;;;;28.43;36.20;92395.75;2044412;70;20237;-83
2023/07/28 11:11:24;;;;;;;3.20;2.60;;;;;;;34.37;29.97;92410.50;2044384;70;20249;-84
2023/07/28 11:13:53;;;;;;;5.60;2.45;;;;;;;39.04;26.23;92413.63;2044417;70;20178;-85
2023/07/28 11:16:22;;;;;;;4.68;2.47;;;;;;;32.28;31.46;92393.97;2044503;70;20217;-84
2023/07/28 11:18:48;;;;;;;2.60;2.40;;;;;;;35.41;29.06;92403.19;2044101;70;20157;-86
2023/07/28 11:21:17;;;;;;;4.57;2.40;;;;;;;31.21;33.52;92389.91;2044488;70;20147;-85
2023/07/28 11:23:46;;;;;;;4.38;2.70;;;;;;;30.75;34.64;92382.88;2044186;70;20938;-84
2023/07/28 11:26:11;;;;;;;3.45;2.45;;;;;;;31.08;32.42;92377.09;2044472;70;20185;-84
2023/07/28 11:28:38;;;;;;;4.72;2.63;;;;;;;34.29;28.16;92378.63;2044029;70;20261;-87
2023/07/28 11:31:05;;;;;;;3.10;2.80;;;;;;;33.48;30.52;92378.31;2040620;70;20171;-84
2023/07/28 11:33:31;;;;;;;4.75;2.95;;;;;;;31.75;32.84;92371.97;2043935;70;20170;-84
2023/07/28 11:35:57;;;;;;;2.85;2.40;;;;;;;30.33;33.86;92362.59;2040811;70;20269;-82
2023/07/28 11:38:23;;;;;;;3.28;2.58;;;;;;;30.52;34.13;92362.97;2044362;70;20500;-83